sensor_id;sensor_type;location;lat;lon;timestamp;temperature;humidity
56308;DHT22;42217;50.422;7.210;2023-01-10T00:01:21;4.10;99.90
56308;DHT22;42217;50.422;7.210;2023-01-10T00:03:47;4.10;99.90
56308;DHT22;42217;50.422;7.210;2023-01-10T00:06:13;4.20;99.90
56308;DHT22;42217;50.422;7.210;2023-01-10T00:08:38;4.30;99.90
56308;DHT22;42217;50.422;7.210;2023-01-10T00:11:04;4.30;99.90
56308;DHT22;42217;50.422;7.210;2023-01-10T00:13:55;4.40;99.90
56308;DHT22;42217;50.422;7.210;2023-01-10T00:16:21;4.50;99.90
56308;DHT22;42217;50.422;7.210;2023-01-10T00:18:48;4.50;99.90
56308;DHT22;42217;50.422;7.210;2023-01-10T00:21:13;4.40;99.90
56308;DHT22;42217;50.422;7.210;2023-01-10T00:23:40;4.40;99.90
56308;DHT22;42217;50.422;7.210;2023-01-10T00:26:07;4.30;99.90
56308;DHT22;42217;50.422;7.210;2023-01-10T00:28:33;4.30;99.90
56308;DHT22;42217;50.422;7.210;2023-01-10T00:30:59;4.30;99.90
56308;DHT22;42217;50.422;7.210;2023-01-10T00:33:27;4.40;99.90
56308;DHT22;42217;50.422;7.210;2023-01-10T00:35:54;4.40;99.90
56308;DHT22;42217;50.422;7.210;2023-01-10T00:38:20;4.40;99.90
56308;DHT22;42217;50.422;7.210;2023-01-10T00:40:45;4.40;99.90
56308;DHT22;42217;50.422;7.210;2023-01-10T00:43:11;4.40;99.90
56308;DHT22;42217;50.422;7.210;2023-01-10T00:45:55;4.50;99.90
56308;DHT22;42217;50.422;7.210;2023-01-10T00:48:22;4.50;99.90
56308;DHT22;42217;50.422;7.210;2023-01-10T00:50:48;4.50;99.90
56308;DHT22;42217;50.422;7.210;2023-01-10T00:53:14;4.60;99.90
56308;DHT22;42217;50.422;7.210;2023-01-10T00:55:40;4.60;99.90
56308;DHT22;42217;50.422;7.210;2023-01-10T00:58:05;4.60;99.90
56308;DHT22;42217;50.422;7.210;2023-01-10T01:00:33;4.60;99.90
56308;DHT22;42217;50.422;7.210;2023-01-10T01:02:58;4.60;99.90
56308;DHT22;42217;50.422;7.210;2023-01-10T01:05:24;4.60;99.90
56308;DHT22;42217;50.422;7.210;2023-01-10T01:07:50;4.60;99.90
56308;DHT22;42217;50.422;7.210;2023-01-10T01:10:16;4.70;99.90
56308;DHT22;42217;50.422;7.210;2023-01-10T01:12:56;4.70;99.90
56308;DHT22;42217;50.422;7.210;2023-01-10T01:15:23;4.70;99.90
56308;DHT22;42217;50.422;7.210;2023-01-10T01:17:49;4.70;99.90
56308;DHT22;42217;50.422;7.210;2023-01-10T01:20:15;4.70;99.90
56308;DHT22;42217;50.422;7.210;2023-01-10T01:22:41;4.80;99.90
56308;DHT22;42217;50.422;7.210;2023-01-10T01:25:07;4.80;99.90
56308;DHT22;42217;50.422;7.210;2023-01-10T01:27:33;4.90;99.90
56308;DHT22;42217;50.422;7.210;2023-01-10T01:30:07;4.80;99.90
56308;DHT22;42217;50.422;7.210;2023-01-10T01:32:33;4.80;99.90
56308;DHT22;42217;50.422;7.210;2023-01-10T01:34:59;4.80;99.90
56308;DHT22;42217;50.422;7.210;2023-01-10T01:37:25;4.80;99.90
56308;DHT22;42217;50.422;7.210;2023-01-10T01:39:50;4.80;99.90
56308;DHT22;42217;50.422;7.210;2023-01-10T01:47:54;4.80;99.90
56308;DHT22;42217;50.422;7.210;2023-01-10T01:53:08;4.80;99.90
56308;DHT22;42217;50.422;7.210;2023-01-10T01:55:36;4.80;99.90
56308;DHT22;42217;50.422;7.210;2023-01-10T01:58:05;4.70;99.90
56308;DHT22;42217;50.422;7.210;2023-01-10T02:00:33;4.60;99.90
56308;DHT22;42217;50.422;7.210;2023-01-10T02:03:00;4.60;99.90
56308;DHT22;42217;50.422;7.210;2023-01-10T02:05:26;4.60;99.90
56308;DHT22;42217;50.422;7.210;2023-01-10T02:07:56;4.60;99.90
56308;DHT22;42217;50.422;7.210;2023-01-10T02:13:01;4.50;99.90
56308;DHT22;42217;50.422;7.210;2023-01-10T02:15:27;4.50;99.90
56308;DHT22;42217;50.422;7.210;2023-01-10T02:17:53;4.60;99.90
56308;DHT22;42217;50.422;7.210;2023-01-10T02:20:20;4.50;99.90
56308;DHT22;42217;50.422;7.210;2023-01-10T02:40:51;4.10;99.90
56308;DHT22;42217;50.422;7.210;2023-01-10T02:43:30;4.00;99.90
56308;DHT22;42217;50.422;7.210;2023-01-10T02:46:29;4.00;99.90
56308;DHT22;42217;50.422;7.210;2023-01-10T02:48:55;4.00;99.90
56308;DHT22;42217;50.422;7.210;2023-01-10T02:51:24;3.90;99.90
56308;DHT22;42217;50.422;7.210;2023-01-10T02:54:11;3.70;99.90
56308;DHT22;42217;50.422;7.210;2023-01-10T03:02:36;3.90;99.90
56308;DHT22;42217;50.422;7.210;2023-01-10T03:10:55;3.90;99.90
56308;DHT22;42217;50.422;7.210;2023-01-10T03:13:49;3.90;99.90
56308;DHT22;42217;50.422;7.210;2023-01-10T03:16:18;3.90;99.90
56308;DHT22;42217;50.422;7.210;2023-01-10T03:18:52;3.90;99.90
56308;DHT22;42217;50.422;7.210;2023-01-10T03:21:21;3.90;99.90
56308;DHT22;42217;50.422;7.210;2023-01-10T03:23:49;4.10;99.90
56308;DHT22;42217;50.422;7.210;2023-01-10T03:26:34;4.10;99.90
56308;DHT22;42217;50.422;7.210;2023-01-10T03:29:06;4.10;99.90
56308;DHT22;42217;50.422;7.210;2023-01-10T03:31:44;4.20;99.90
56308;DHT22;42217;50.422;7.210;2023-01-10T03:34:12;4.30;99.90
56308;DHT22;42217;50.422;7.210;2023-01-10T03:40:50;4.10;99.90
56308;DHT22;42217;50.422;7.210;2023-01-10T03:46:12;3.80;99.90
56308;DHT22;42217;50.422;7.210;2023-01-10T03:48:44;3.70;99.90
56308;DHT22;42217;50.422;7.210;2023-01-10T03:51:11;3.60;99.90
56308;DHT22;42217;50.422;7.210;2023-01-10T03:53:39;3.50;99.90
56308;DHT22;42217;50.422;7.210;2023-01-10T03:56:05;3.40;99.90
56308;DHT22;42217;50.422;7.210;2023-01-10T03:58:32;3.50;99.90
56308;DHT22;42217;50.422;7.210;2023-01-10T04:00:57;3.70;99.90
56308;DHT22;42217;50.422;7.210;2023-01-10T04:03:23;3.60;99.90
56308;DHT22;42217;50.422;7.210;2023-01-10T04:05:49;3.50;99.90
56308;DHT22;42217;50.422;7.210;2023-01-10T04:08:15;3.50;99.90
56308;DHT22;42217;50.422;7.210;2023-01-10T04:10:40;3.50;99.90
56308;DHT22;42217;50.422;7.210;2023-01-10T04:13:06;3.30;99.90
56308;DHT22;42217;50.422;7.210;2023-01-10T04:15:32;3.10;99.90
56308;DHT22;42217;50.422;7.210;2023-01-10T04:17:57;3.10;99.90
56308;DHT22;42217;50.422;7.210;2023-01-10T04:20:23;3.10;99.90
56308;DHT22;42217;50.422;7.210;2023-01-10T04:22:52;3.10;99.90
56308;DHT22;42217;50.422;7.210;2023-01-10T04:25:22;3.00;99.90
56308;DHT22;42217;50.422;7.210;2023-01-10T04:27:49;3.00;99.90
56308;DHT22;42217;50.422;7.210;2023-01-10T04:30:15;2.70;99.90
56308;DHT22;42217;50.422;7.210;2023-01-10T04:32:41;2.70;99.90
56308;DHT22;42217;50.422;7.210;2023-01-10T04:35:07;2.50;99.90
56308;DHT22;42217;50.422;7.210;2023-01-10T04:37:33;2.50;99.90
56308;DHT22;42217;50.422;7.210;2023-01-10T04:39:59;2.60;99.90
56308;DHT22;42217;50.422;7.210;2023-01-10T04:42:27;2.70;99.90
56308;DHT22;42217;50.422;7.210;2023-01-10T04:44:53;2.60;99.90
56308;DHT22;42217;50.422;7.210;2023-01-10T04:47:18;2.50;99.90
56308;DHT22;42217;50.422;7.210;2023-01-10T04:49:44;2.50;99.90
56308;DHT22;42217;50.422;7.210;2023-01-10T04:52:10;2.40;99.90
56308;DHT22;42217;50.422;7.210;2023-01-10T04:54:35;2.70;99.90
56308;DHT22;42217;50.422;7.210;2023-01-10T04:57:01;3.00;99.90
56308;DHT22;42217;50.422;7.210;2023-01-10T04:59:27;3.10;99.90
56308;DHT22;42217;50.422;7.210;2023-01-10T05:01:52;3.20;99.90
56308;DHT22;42217;50.422;7.210;2023-01-10T05:04:18;3.10;99.90
56308;DHT22;42217;50.422;7.210;2023-01-10T05:06:44;3.10;99.90
56308;DHT22;42217;50.422;7.210;2023-01-10T05:09:09;3.00;99.90
56308;DHT22;42217;50.422;7.210;2023-01-10T05:11:35;3.00;99.90
56308;DHT22;42217;50.422;7.210;2023-01-10T05:14:01;3.00;99.90
56308;DHT22;42217;50.422;7.210;2023-01-10T05:16:27;3.00;99.90
56308;DHT22;42217;50.422;7.210;2023-01-10T05:18:53;3.10;99.90
56308;DHT22;42217;50.422;7.210;2023-01-10T05:21:19;3.00;99.90
56308;DHT22;42217;50.422;7.210;2023-01-10T05:23:44;3.00;99.90
56308;DHT22;42217;50.422;7.210;2023-01-10T05:26:13;3.00;99.90
56308;DHT22;42217;50.422;7.210;2023-01-10T05:28:40;3.00;99.90
56308;DHT22;42217;50.422;7.210;2023-01-10T05:31:08;3.10;99.90
56308;DHT22;42217;50.422;7.210;2023-01-10T05:33:34;3.20;99.90
56308;DHT22;42217;50.422;7.210;2023-01-10T05:36:01;3.30;99.90
56308;DHT22;42217;50.422;7.210;2023-01-10T05:38:28;3.40;99.90
56308;DHT22;42217;50.422;7.210;2023-01-10T05:40:55;3.40;99.90
56308;DHT22;42217;50.422;7.210;2023-01-10T05:43:22;3.40;99.90
56308;DHT22;42217;50.422;7.210;2023-01-10T05:45:48;3.40;99.90
56308;DHT22;42217;50.422;7.210;2023-01-10T05:48:13;3.40;99.90
56308;DHT22;42217;50.422;7.210;2023-01-10T05:50:39;3.50;99.90
56308;DHT22;42217;50.422;7.210;2023-01-10T05:53:05;3.60;99.90
56308;DHT22;42217;50.422;7.210;2023-01-10T05:55:31;3.70;99.90
56308;DHT22;42217;50.422;7.210;2023-01-10T05:57:57;3.60;99.90
56308;DHT22;42217;50.422;7.210;2023-01-10T06:00:23;3.70;99.90
56308;DHT22;42217;50.422;7.210;2023-01-10T06:02:49;3.80;99.90
56308;DHT22;42217;50.422;7.210;2023-01-10T06:05:15;3.70;99.90
56308;DHT22;42217;50.422;7.210;2023-01-10T06:07:40;3.70;99.90
56308;DHT22;42217;50.422;7.210;2023-01-10T06:10:06;3.60;99.90
56308;DHT22;42217;50.422;7.210;2023-01-10T06:12:32;3.50;99.90
56308;DHT22;42217;50.422;7.210;2023-01-10T06:14:58;3.50;99.90
56308;DHT22;42217;50.422;7.210;2023-01-10T06:17:23;3.50;99.90
56308;DHT22;42217;50.422;7.210;2023-01-10T06:19:50;3.50;99.90
56308;DHT22;42217;50.422;7.210;2023-01-10T06:22:17;3.50;99.90
56308;DHT22;42217;50.422;7.210;2023-01-10T06:24:43;3.60;99.90
56308;DHT22;42217;50.422;7.210;2023-01-10T06:27:09;3.60;99.90
56308;DHT22;42217;50.422;7.210;2023-01-10T06:29:34;3.60;99.90
56308;DHT22;42217;50.422;7.210;2023-01-10T06:32:00;3.70;99.90
56308;DHT22;42217;50.422;7.210;2023-01-10T06:34:26;3.70;99.90
56308;DHT22;42217;50.422;7.210;2023-01-10T06:36:51;3.70;99.90
56308;DHT22;42217;50.422;7.210;2023-01-10T06:39:17;3.60;99.90
56308;DHT22;42217;50.422;7.210;2023-01-10T06:41:43;3.50;99.90
56308;DHT22;42217;50.422;7.210;2023-01-10T06:44:08;3.50;99.90
56308;DHT22;42217;50.422;7.210;2023-01-10T06:46:34;3.50;99.90
56308;DHT22;42217;50.422;7.210;2023-01-10T06:49:00;3.50;99.90
56308;DHT22;42217;50.422;7.210;2023-01-10T06:51:26;3.50;99.90
56308;DHT22;42217;50.422;7.210;2023-01-10T06:53:51;3.50;99.90
56308;DHT22;42217;50.422;7.210;2023-01-10T06:56:17;3.50;99.90
56308;DHT22;42217;50.422;7.210;2023-01-10T06:58:43;3.50;99.90
56308;DHT22;42217;50.422;7.210;2023-01-10T07:01:13;3.20;99.90
56308;DHT22;42217;50.422;7.210;2023-01-10T07:03:39;3.10;99.90
56308;DHT22;42217;50.422;7.210;2023-01-10T07:06:05;3.10;99.90
56308;DHT22;42217;50.422;7.210;2023-01-10T07:08:43;2.90;99.90
56308;DHT22;42217;50.422;7.210;2023-01-10T07:11:09;3.00;99.90
56308;DHT22;42217;50.422;7.210;2023-01-10T07:13:36;3.10;99.90
56308;DHT22;42217;50.422;7.210;2023-01-10T07:16:03;3.20;99.90
56308;DHT22;42217;50.422;7.210;2023-01-10T07:18:29;3.20;99.90
56308;DHT22;42217;50.422;7.210;2023-01-10T07:20:56;3.30;99.90
56308;DHT22;42217;50.422;7.210;2023-01-10T07:23:22;3.30;99.90
56308;DHT22;42217;50.422;7.210;2023-01-10T07:25:48;3.40;99.90
56308;DHT22;42217;50.422;7.210;2023-01-10T07:28:14;3.40;99.90
56308;DHT22;42217;50.422;7.210;2023-01-10T07:30:39;3.40;99.90
56308;DHT22;42217;50.422;7.210;2023-01-10T07:33:05;3.40;99.90
56308;DHT22;42217;50.422;7.210;2023-01-10T07:35:31;3.40;99.90
56308;DHT22;42217;50.422;7.210;2023-01-10T07:37:58;3.30;99.90
56308;DHT22;42217;50.422;7.210;2023-01-10T07:40:24;3.40;99.90
56308;DHT22;42217;50.422;7.210;2023-01-10T07:43:00;3.40;99.90
56308;DHT22;42217;50.422;7.210;2023-01-10T07:45:27;3.40;99.90
56308;DHT22;42217;50.422;7.210;2023-01-10T07:47:58;3.50;99.90
56308;DHT22;42217;50.422;7.210;2023-01-10T07:50:26;3.60;99.90
56308;DHT22;42217;50.422;7.210;2023-01-10T07:52:52;3.60;99.90
56308;DHT22;42217;50.422;7.210;2023-01-10T07:55:18;3.60;99.90
56308;DHT22;42217;50.422;7.210;2023-01-10T07:57:44;3.70;99.90
56308;DHT22;42217;50.422;7.210;2023-01-10T08:00:10;3.70;99.90
56308;DHT22;42217;50.422;7.210;2023-01-10T08:02:36;3.80;99.90
56308;DHT22;42217;50.422;7.210;2023-01-10T08:05:02;4.00;99.90
56308;DHT22;42217;50.422;7.210;2023-01-10T08:07:28;4.00;99.90
56308;DHT22;42217;50.422;7.210;2023-01-10T08:09:54;4.00;99.90
56308;DHT22;42217;50.422;7.210;2023-01-10T08:12:20;4.00;99.90
56308;DHT22;42217;50.422;7.210;2023-01-10T08:14:46;4.00;99.90
56308;DHT22;42217;50.422;7.210;2023-01-10T08:17:12;4.10;99.90
56308;DHT22;42217;50.422;7.210;2023-01-10T08:19:37;4.10;99.90
56308;DHT22;42217;50.422;7.210;2023-01-10T08:22:03;4.10;99.90
56308;DHT22;42217;50.422;7.210;2023-01-10T08:24:29;4.10;99.90
56308;DHT22;42217;50.422;7.210;2023-01-10T08:26:57;4.20;99.90
56308;DHT22;42217;50.422;7.210;2023-01-10T08:29:23;4.20;99.90
56308;DHT22;42217;50.422;7.210;2023-01-10T08:31:48;4.30;99.90
56308;DHT22;42217;50.422;7.210;2023-01-10T08:34:14;4.30;99.90
56308;DHT22;42217;50.422;7.210;2023-01-10T08:36:40;4.30;99.90
56308;DHT22;42217;50.422;7.210;2023-01-10T08:39:05;4.30;99.90
56308;DHT22;42217;50.422;7.210;2023-01-10T08:41:31;4.30;99.90
56308;DHT22;42217;50.422;7.210;2023-01-10T08:43:57;4.30;99.90
56308;DHT22;42217;50.422;7.210;2023-01-10T08:46:23;4.40;99.90
56308;DHT22;42217;50.422;7.210;2023-01-10T08:48:48;4.40;99.90
56308;DHT22;42217;50.422;7.210;2023-01-10T08:51:15;4.50;99.90
56308;DHT22;42217;50.422;7.210;2023-01-10T08:53:41;4.60;99.90
56308;DHT22;42217;50.422;7.210;2023-01-10T08:56:07;4.60;99.90
56308;DHT22;42217;50.422;7.210;2023-01-10T08:58:33;4.60;99.90
56308;DHT22;42217;50.422;7.210;2023-01-10T09:01:03;4.60;99.90
56308;DHT22;42217;50.422;7.210;2023-01-10T09:03:29;4.70;99.90
56308;DHT22;42217;50.422;7.210;2023-01-10T09:05:54;4.70;99.90
56308;DHT22;42217;50.422;7.210;2023-01-10T09:08:20;4.80;99.90
56308;DHT22;42217;50.422;7.210;2023-01-10T09:10:46;4.80;99.90
56308;DHT22;42217;50.422;7.210;2023-01-10T09:13:12;4.80;99.90
56308;DHT22;42217;50.422;7.210;2023-01-10T09:15:38;4.80;99.90
56308;DHT22;42217;50.422;7.210;2023-01-10T09:18:05;4.70;99.90
56308;DHT22;42217;50.422;7.210;2023-01-10T09:20:34;4.80;99.90
56308;DHT22;42217;50.422;7.210;2023-01-10T09:23:08;4.80;99.90
56308;DHT22;42217;50.422;7.210;2023-01-10T09:25:35;4.80;99.90
56308;DHT22;42217;50.422;7.210;2023-01-10T09:28:02;4.90;99.90
56308;DHT22;42217;50.422;7.210;2023-01-10T09:30:28;5.00;99.90
56308;DHT22;42217;50.422;7.210;2023-01-10T09:32:55;5.00;99.90
56308;DHT22;42217;50.422;7.210;2023-01-10T09:35:22;5.00;99.90
56308;DHT22;42217;50.422;7.210;2023-01-10T09:37:48;5.10;99.90
56308;DHT22;42217;50.422;7.210;2023-01-10T09:46:05;5.20;99.90
56308;DHT22;42217;50.422;7.210;2023-01-10T09:51:15;5.30;99.90
56308;DHT22;42217;50.422;7.210;2023-01-10T09:56:16;5.40;99.90
56308;DHT22;42217;50.422;7.210;2023-01-10T09:58:43;5.40;99.90
56308;DHT22;42217;50.422;7.210;2023-01-10T10:01:16;5.50;99.90
56308;DHT22;42217;50.422;7.210;2023-01-10T10:06:42;5.50;99.90
56308;DHT22;42217;50.422;7.210;2023-01-10T10:09:12;5.50;99.90
56308;DHT22;42217;50.422;7.210;2023-01-10T10:12:01;5.50;99.90
56308;DHT22;42217;50.422;7.210;2023-01-10T10:20:43;5.60;99.90
56308;DHT22;42217;50.422;7.210;2023-01-10T10:23:19;5.60;99.90
56308;DHT22;42217;50.422;7.210;2023-01-10T10:31:03;5.90;99.90
56308;DHT22;42217;50.422;7.210;2023-01-10T10:36:29;6.00;99.90
56308;DHT22;42217;50.422;7.210;2023-01-10T10:38:59;6.10;99.90
56308;DHT22;42217;50.422;7.210;2023-01-10T10:41:36;6.10;99.90
56308;DHT22;42217;50.422;7.210;2023-01-10T10:44:21;6.20;99.90
56308;DHT22;42217;50.422;7.210;2023-01-10T10:46:49;6.20;99.90
56308;DHT22;42217;50.422;7.210;2023-01-10T10:52:02;6.10;99.90
56308;DHT22;42217;50.422;7.210;2023-01-10T10:54:31;6.20;99.90
56308;DHT22;42217;50.422;7.210;2023-01-10T10:56:59;6.30;99.90
56308;DHT22;42217;50.422;7.210;2023-01-10T10:59:24;6.40;99.90
56308;DHT22;42217;50.422;7.210;2023-01-10T11:01:50;6.40;99.90
56308;DHT22;42217;50.422;7.210;2023-01-10T11:04:20;6.30;99.90
56308;DHT22;42217;50.422;7.210;2023-01-10T11:06:46;6.20;99.90
56308;DHT22;42217;50.422;7.210;2023-01-10T11:09:21;6.10;99.90
56308;DHT22;42217;50.422;7.210;2023-01-10T11:11:55;6.30;99.90
56308;DHT22;42217;50.422;7.210;2023-01-10T11:14:44;6.30;99.90
56308;DHT22;42217;50.422;7.210;2023-01-10T11:17:23;6.30;99.90
56308;DHT22;42217;50.422;7.210;2023-01-10T11:22:27;6.50;99.90
56308;DHT22;42217;50.422;7.210;2023-01-10T11:25:02;6.60;99.90
56308;DHT22;42217;50.422;7.210;2023-01-10T11:27:35;6.60;99.90
56308;DHT22;42217;50.422;7.210;2023-01-10T11:30:05;6.50;99.90
56308;DHT22;42217;50.422;7.210;2023-01-10T11:32:38;6.50;99.90
56308;DHT22;42217;50.422;7.210;2023-01-10T11:35:18;6.40;99.90
56308;DHT22;42217;50.422;7.210;2023-01-10T11:37:58;6.40;99.90
56308;DHT22;42217;50.422;7.210;2023-01-10T11:40:26;6.40;99.90
56308;DHT22;42217;50.422;7.210;2023-01-10T11:42:54;6.40;99.90
56308;DHT22;42217;50.422;7.210;2023-01-10T11:45:22;6.40;99.90
56308;DHT22;42217;50.422;7.210;2023-01-10T11:47:55;6.30;99.90
56308;DHT22;42217;50.422;7.210;2023-01-10T11:50:32;6.40;99.90
56308;DHT22;42217;50.422;7.210;2023-01-10T11:52:58;6.40;99.90
56308;DHT22;42217;50.422;7.210;2023-01-10T11:55:29;6.50;99.90
56308;DHT22;42217;50.422;7.210;2023-01-10T11:58:11;6.60;99.90
56308;DHT22;42217;50.422;7.210;2023-01-10T12:00:48;6.60;99.90
56308;DHT22;42217;50.422;7.210;2023-01-10T12:05:54;6.50;99.90
56308;DHT22;42217;50.422;7.210;2023-01-10T12:08:29;6.40;99.90
56308;DHT22;42217;50.422;7.210;2023-01-10T12:11:04;6.40;99.90
56308;DHT22;42217;50.422;7.210;2023-01-10T12:13:46;6.40;99.90
56308;DHT22;42217;50.422;7.210;2023-01-10T12:16:21;6.30;99.90
56308;DHT22;42217;50.422;7.210;2023-01-10T12:18:48;6.40;99.90
56308;DHT22;42217;50.422;7.210;2023-01-10T12:21:18;6.50;99.90
56308;DHT22;42217;50.422;7.210;2023-01-10T12:23:45;6.60;99.90
56308;DHT22;42217;50.422;7.210;2023-01-10T12:26:13;6.60;99.90
56308;DHT22;42217;50.422;7.210;2023-01-10T12:28:43;6.50;99.90
56308;DHT22;42217;50.422;7.210;2023-01-10T12:31:13;6.60;99.90
56308;DHT22;42217;50.422;7.210;2023-01-10T12:33:45;6.60;99.90
56308;DHT22;42217;50.422;7.210;2023-01-10T12:39:13;6.80;99.90
56308;DHT22;42217;50.422;7.210;2023-01-10T12:44:35;6.90;99.90
56308;DHT22;42217;50.422;7.210;2023-01-10T12:55:16;6.60;99.90
56308;DHT22;42217;50.422;7.210;2023-01-10T12:57:48;6.60;99.90
56308;DHT22;42217;50.422;7.210;2023-01-10T13:00:44;6.60;99.90
56308;DHT22;42217;50.422;7.210;2023-01-10T13:03:14;6.60;99.90
56308;DHT22;42217;50.422;7.210;2023-01-10T13:05:41;6.70;99.90
56308;DHT22;42217;50.422;7.210;2023-01-10T13:08:12;6.60;99.90
56308;DHT22;42217;50.422;7.210;2023-01-10T13:10:42;6.60;99.90
56308;DHT22;42217;50.422;7.210;2023-01-10T13:13:37;6.40;99.90
56308;DHT22;42217;50.422;7.210;2023-01-10T13:21:30;6.30;99.90
56308;DHT22;42217;50.422;7.210;2023-01-10T13:27:03;6.30;99.90
56308;DHT22;42217;50.422;7.210;2023-01-10T13:29:40;6.30;99.90
56308;DHT22;42217;50.422;7.210;2023-01-10T13:32:23;6.30;99.90
56308;DHT22;42217;50.422;7.210;2023-01-10T13:34:50;6.40;99.90
56308;DHT22;42217;50.422;7.210;2023-01-10T13:37:27;6.30;99.90
56308;DHT22;42217;50.422;7.210;2023-01-10T13:39:57;6.30;99.90
56308;DHT22;42217;50.422;7.210;2023-01-10T13:42:34;6.30;99.90
56308;DHT22;42217;50.422;7.210;2023-01-10T13:45:28;6.30;99.90
56308;DHT22;42217;50.422;7.210;2023-01-10T13:47:59;6.20;99.90
56308;DHT22;42217;50.422;7.210;2023-01-10T14:03:57;6.00;99.90
56308;DHT22;42217;50.422;7.210;2023-01-10T14:06:37;6.00;99.90
56308;DHT22;42217;50.422;7.210;2023-01-10T14:14:27;6.00;99.90
56308;DHT22;42217;50.422;7.210;2023-01-10T14:19:35;5.80;99.90
56308;DHT22;42217;50.422;7.210;2023-01-10T14:22:03;5.80;99.90
56308;DHT22;42217;50.422;7.210;2023-01-10T14:24:41;5.80;99.90
56308;DHT22;42217;50.422;7.210;2023-01-10T14:27:15;5.60;99.90
56308;DHT22;42217;50.422;7.210;2023-01-10T14:29:52;5.60;99.90
56308;DHT22;42217;50.422;7.210;2023-01-10T14:32:32;5.60;99.90
56308;DHT22;42217;50.422;7.210;2023-01-10T14:35:03;5.60;99.90
56308;DHT22;42217;50.422;7.210;2023-01-10T14:37:40;5.70;99.90
56308;DHT22;42217;50.422;7.210;2023-01-10T14:40:16;5.70;99.90
56308;DHT22;42217;50.422;7.210;2023-01-10T14:42:45;5.60;99.90
56308;DHT22;42217;50.422;7.210;2023-01-10T14:45:30;5.60;99.90
56308;DHT22;42217;50.422;7.210;2023-01-10T14:47:56;5.60;99.90
56308;DHT22;42217;50.422;7.210;2023-01-10T14:50:29;5.50;99.90
56308;DHT22;42217;50.422;7.210;2023-01-10T14:52:57;5.50;99.90
56308;DHT22;42217;50.422;7.210;2023-01-10T14:55:24;5.50;99.90
56308;DHT22;42217;50.422;7.210;2023-01-10T14:58:00;5.50;99.90
56308;DHT22;42217;50.422;7.210;2023-01-10T15:00:33;5.50;99.90
56308;DHT22;42217;50.422;7.210;2023-01-10T15:03:02;5.50;99.90
56308;DHT22;42217;50.422;7.210;2023-01-10T15:05:36;5.40;99.90
56308;DHT22;42217;50.422;7.210;2023-01-10T15:08:23;5.50;99.90
56308;DHT22;42217;50.422;7.210;2023-01-10T15:10:56;5.50;99.90
56308;DHT22;42217;50.422;7.210;2023-01-10T15:13:25;5.50;99.90
56308;DHT22;42217;50.422;7.210;2023-01-10T15:15:53;5.50;99.90
56308;DHT22;42217;50.422;7.210;2023-01-10T15:18:40;5.50;99.90
56308;DHT22;42217;50.422;7.210;2023-01-10T15:21:10;5.50;99.90
56308;DHT22;42217;50.422;7.210;2023-01-10T15:23:39;5.50;99.90
56308;DHT22;42217;50.422;7.210;2023-01-10T15:26:08;5.60;99.90
56308;DHT22;42217;50.422;7.210;2023-01-10T15:28:35;5.50;99.90
56308;DHT22;42217;50.422;7.210;2023-01-10T15:31:05;5.60;99.90
56308;DHT22;42217;50.422;7.210;2023-01-10T15:33:34;5.60;99.90
56308;DHT22;42217;50.422;7.210;2023-01-10T15:36:27;5.60;99.90
56308;DHT22;42217;50.422;7.210;2023-01-10T15:38:54;5.60;99.90
56308;DHT22;42217;50.422;7.210;2023-01-10T15:41:21;5.60;99.90
56308;DHT22;42217;50.422;7.210;2023-01-10T15:43:48;5.50;99.90
56308;DHT22;42217;50.422;7.210;2023-01-10T15:46:23;5.60;99.90
56308;DHT22;42217;50.422;7.210;2023-01-10T15:49:22;5.50;99.90
56308;DHT22;42217;50.422;7.210;2023-01-10T15:51:49;5.50;99.90
56308;DHT22;42217;50.422;7.210;2023-01-10T15:56:52;5.30;99.90
56308;DHT22;42217;50.422;7.210;2023-01-10T15:59:39;5.30;99.90
56308;DHT22;42217;50.422;7.210;2023-01-10T16:02:30;5.40;99.90
56308;DHT22;42217;50.422;7.210;2023-01-10T16:05:05;5.30;99.90
56308;DHT22;42217;50.422;7.210;2023-01-10T16:07:33;5.30;99.90
56308;DHT22;42217;50.422;7.210;2023-01-10T16:10:14;5.30;99.90
56308;DHT22;42217;50.422;7.210;2023-01-10T16:12:42;5.20;99.90
56308;DHT22;42217;50.422;7.210;2023-01-10T16:15:28;5.20;99.90
56308;DHT22;42217;50.422;7.210;2023-01-10T16:17:57;5.10;99.90
56308;DHT22;42217;50.422;7.210;2023-01-10T16:20:29;5.10;99.90
56308;DHT22;42217;50.422;7.210;2023-01-10T16:22:56;5.10;99.90
56308;DHT22;42217;50.422;7.210;2023-01-10T16:25:29;5.00;99.90
56308;DHT22;42217;50.422;7.210;2023-01-10T16:27:57;5.00;99.90
56308;DHT22;42217;50.422;7.210;2023-01-10T16:30:29;5.00;99.90
56308;DHT22;42217;50.422;7.210;2023-01-10T16:32:56;5.00;99.90
56308;DHT22;42217;50.422;7.210;2023-01-10T16:35:24;5.00;99.90
56308;DHT22;42217;50.422;7.210;2023-01-10T16:37:55;4.90;99.90
56308;DHT22;42217;50.422;7.210;2023-01-10T16:40:27;5.00;99.90
56308;DHT22;42217;50.422;7.210;2023-01-10T16:42:54;4.90;99.90
56308;DHT22;42217;50.422;7.210;2023-01-10T16:45:39;4.90;99.90
56308;DHT22;42217;50.422;7.210;2023-01-10T16:48:05;4.90;99.90
56308;DHT22;42217;50.422;7.210;2023-01-10T16:50:31;5.00;99.90
56308;DHT22;42217;50.422;7.210;2023-01-10T16:52:58;4.90;99.90
56308;DHT22;42217;50.422;7.210;2023-01-10T16:55:48;5.00;99.90
56308;DHT22;42217;50.422;7.210;2023-01-10T16:58:13;5.00;99.90
56308;DHT22;42217;50.422;7.210;2023-01-10T17:00:41;5.10;99.90
56308;DHT22;42217;50.422;7.210;2023-01-10T17:03:11;5.10;99.90
56308;DHT22;42217;50.422;7.210;2023-01-10T17:05:38;5.10;99.90
56308;DHT22;42217;50.422;7.210;2023-01-10T17:08:04;5.10;99.90
56308;DHT22;42217;50.422;7.210;2023-01-10T17:10:33;5.00;99.90
56308;DHT22;42217;50.422;7.210;2023-01-10T17:13:01;5.10;99.90
56308;DHT22;42217;50.422;7.210;2023-01-10T17:15:28;5.10;99.90
56308;DHT22;42217;50.422;7.210;2023-01-10T17:17:54;5.10;99.90
56308;DHT22;42217;50.422;7.210;2023-01-10T17:20:20;5.10;99.90
56308;DHT22;42217;50.422;7.210;2023-01-10T17:22:46;5.10;99.90
56308;DHT22;42217;50.422;7.210;2023-01-10T17:25:16;5.20;99.90
56308;DHT22;42217;50.422;7.210;2023-01-10T17:27:43;5.20;99.90
56308;DHT22;42217;50.422;7.210;2023-01-10T17:30:10;5.10;99.90
56308;DHT22;42217;50.422;7.210;2023-01-10T17:32:36;5.10;99.90
56308;DHT22;42217;50.422;7.210;2023-01-10T17:35:03;5.10;99.90
56308;DHT22;42217;50.422;7.210;2023-01-10T17:37:29;5.10;99.90
56308;DHT22;42217;50.422;7.210;2023-01-10T17:39:54;5.10;99.90
56308;DHT22;42217;50.422;7.210;2023-01-10T17:42:20;5.10;99.90
56308;DHT22;42217;50.422;7.210;2023-01-10T17:44:47;5.10;99.90
56308;DHT22;42217;50.422;7.210;2023-01-10T17:47:13;5.10;99.90
56308;DHT22;42217;50.422;7.210;2023-01-10T17:49:39;5.10;99.90
56308;DHT22;42217;50.422;7.210;2023-01-10T17:52:07;5.10;99.90
56308;DHT22;42217;50.422;7.210;2023-01-10T17:54:33;5.00;99.90
56308;DHT22;42217;50.422;7.210;2023-01-10T17:57:00;5.10;99.90
56308;DHT22;42217;50.422;7.210;2023-01-10T17:59:26;5.00;99.90
56308;DHT22;42217;50.422;7.210;2023-01-10T18:01:52;5.00;99.90
56308;DHT22;42217;50.422;7.210;2023-01-10T18:04:18;5.00;99.90
56308;DHT22;42217;50.422;7.210;2023-01-10T18:06:44;5.00;99.90
56308;DHT22;42217;50.422;7.210;2023-01-10T18:09:10;5.00;99.90